createdAt,value
2022-12-18T00:01:32.386Z,99658.25
2022-12-18T00:04:00.579Z,99654.06
2022-12-18T00:06:31.696Z,99647.72
2022-12-18T00:09:00.637Z,99667.81
2022-12-18T00:11:30.912Z,99668.75
2022-12-18T00:14:00.925Z,99660.50
2022-12-18T00:16:31.116Z,99672.09
2022-12-18T00:19:01.985Z,99682.81
2022-12-18T00:21:32.656Z,99676.56
2022-12-18T00:24:01.909Z,99686.78
2022-12-18T00:26:32.104Z,99687.31
2022-12-18T00:29:05.886Z,99691.16
2022-12-18T00:31:34.784Z,99700.47
2022-12-18T00:34:03.553Z,99691.19
2022-12-18T00:36:34.331Z,99690.88
2022-12-18T00:39:04.553Z,99691.50
2022-12-18T00:41:50.204Z,99696.94
2022-12-18T00:44:20.062Z,99715.34
2022-12-18T00:46:49.666Z,99715.44
2022-12-18T00:49:19.388Z,99721.22
2022-12-18T00:51:49.777Z,99711.06
2022-12-18T00:54:18.103Z,99730.94
2022-12-18T00:56:49.333Z,99719.28
2022-12-18T00:59:18.472Z,99734.91
2022-12-18T01:01:46.978Z,99739.16
2022-12-18T01:04:15.954Z,99727.81
2022-12-18T01:06:47.062Z,99755.50
2022-12-18T01:09:16.794Z,99746.50
2022-12-18T01:11:44.795Z,99741.06
2022-12-18T01:14:12.900Z,99750.47
2022-12-18T01:16:41.030Z,99756.09
2022-12-18T01:19:09.108Z,99760.47
2022-12-18T01:21:37.138Z,99755.25
2022-12-18T01:24:06.865Z,99760.19
2022-12-18T01:26:36.701Z,99758.50
2022-12-18T01:29:04.722Z,99760.22
2022-12-18T01:31:34.679Z,99767.59
2022-12-18T01:34:05.233Z,99760.22
2022-12-18T01:36:34.811Z,99764.34
2022-12-18T01:39:05.265Z,99771.59
2022-12-18T01:41:49.353Z,99760.97
2022-12-18T01:44:57.061Z,99763.97
2022-12-18T01:47:29.607Z,99763.69
2022-12-18T01:49:59.691Z,99766.69
2022-12-18T01:52:30.771Z,99777.81
2022-12-18T01:54:59.348Z,99774.41
2022-12-18T01:57:28.383Z,99794.00
2022-12-18T02:00:01.890Z,99787.22
2022-12-18T02:02:42.340Z,99790.38
2022-12-18T02:05:12.341Z,99786.97
2022-12-18T02:07:47.760Z,99782.34
2022-12-18T02:10:22.013Z,99795.28
2022-12-18T02:12:57.536Z,99803.09
2022-12-18T02:15:33.893Z,99796.72
2022-12-18T02:18:08.803Z,99807.75
2022-12-18T02:20:41.446Z,99814.78
2022-12-18T02:23:19.064Z,99818.28
2022-12-18T02:26:08.140Z,99812.38
2022-12-18T02:28:39.635Z,99825.97
2022-12-18T02:31:13.883Z,99828.59
2022-12-18T02:33:43.706Z,99829.53
2022-12-18T02:36:13.051Z,99826.81
2022-12-18T02:38:41.777Z,99832.13
2022-12-18T02:41:16.797Z,99827.75
2022-12-18T02:43:50.682Z,99836.72
2022-12-18T02:46:31.956Z,99840.59
2022-12-18T02:49:11.599Z,99843.31
2022-12-18T02:51:50.067Z,99838.25
2022-12-18T02:54:29.633Z,99844.72
2022-12-18T02:57:07.971Z,99844.66
2022-12-18T02:59:44.216Z,99854.84
2022-12-18T03:02:23.296Z,99857.28
2022-12-18T03:05:00.676Z,99853.69
2022-12-18T03:07:36.943Z,99862.28
2022-12-18T03:10:14.909Z,99856.78
2022-12-18T03:12:47.152Z,99838.56
2022-12-18T03:15:20.240Z,99861.91
2022-12-18T03:17:57.278Z,99864.63
2022-12-18T03:20:29.579Z,99862.69
2022-12-18T03:23:02.376Z,99861.16
2022-12-18T03:25:32.686Z,99854.91
2022-12-18T03:28:05.526Z,99861.66
2022-12-18T03:30:35.876Z,99873.59
2022-12-18T03:33:09.951Z,99879.75
2022-12-18T03:35:43.780Z,99882.31
2022-12-18T03:38:13.968Z,99886.72
2022-12-18T03:40:59.098Z,99884.56
2022-12-18T03:43:41.227Z,99882.38
2022-12-18T03:46:16.161Z,99894.22
2022-12-18T03:48:50.745Z,99895.06
2022-12-18T03:51:28.784Z,99896.38
2022-12-18T03:54:00.936Z,99901.94
2022-12-18T03:56:37.906Z,99898.47
2022-12-18T03:59:11.414Z,99897.97
2022-12-18T04:01:45.197Z,99900.44
2022-12-18T04:04:16.613Z,99892.84
2022-12-18T04:06:47.919Z,99910.25
2022-12-18T04:09:16.710Z,99909.91
2022-12-18T04:11:48.792Z,99913.31
2022-12-18T04:14:19.488Z,99914.94
2022-12-18T04:16:51.392Z,99914.28
2022-12-18T04:19:23.215Z,99916.44
2022-12-18T04:21:52.879Z,99915.41
2022-12-18T04:24:20.970Z,99917.31
2022-12-18T04:27:01.602Z,99920.69
2022-12-18T04:29:35.866Z,99922.84
2022-12-18T04:32:03.956Z,99929.75
2022-12-18T04:34:33.737Z,99927.41
2022-12-18T04:37:01.919Z,99935.75
2022-12-18T04:39:30.677Z,99938.41
2022-12-18T04:42:03.495Z,99947.53
2022-12-18T04:44:31.514Z,99951.03
2022-12-18T04:47:00.864Z,99962.56
2022-12-18T04:49:28.837Z,99951.06
2022-12-18T04:51:56.991Z,99953.19
2022-12-18T04:54:24.978Z,99958.03
2022-12-18T04:56:53.034Z,99962.47
2022-12-18T04:59:21.677Z,99966.13
2022-12-18T05:01:49.777Z,99969.38
2022-12-18T05:04:19.285Z,99970.66
2022-12-18T05:06:48.147Z,99975.69
2022-12-18T05:09:16.769Z,99984.06
2022-12-18T05:11:45.203Z,99981.13
2022-12-18T05:14:14.467Z,99979.38
2022-12-18T05:16:42.740Z,99978.69
2022-12-18T05:19:10.879Z,99999.50
2022-12-18T05:21:40.539Z,99991.72
2022-12-18T05:24:08.927Z,99994.34
2022-12-18T05:26:36.925Z,99991.44
2022-12-18T05:29:05.023Z,99988.97
2022-12-18T05:31:38.928Z,99994.78
2022-12-18T05:34:08.287Z,100001.84
2022-12-18T05:36:36.433Z,99994.34
2022-12-18T05:39:05.934Z,99996.06
2022-12-18T05:41:34.160Z,99992.38
2022-12-18T05:44:02.385Z,100005.06
2022-12-18T05:46:30.609Z,100001.53
2022-12-18T05:49:01.564Z,100008.56
2022-12-18T05:51:30.035Z,100017.81
2022-12-18T05:53:58.020Z,100019.78
2022-12-18T05:56:27.444Z,100014.88
2022-12-18T05:58:56.354Z,100018.34
2022-12-18T06:01:27.936Z,100018.44
2022-12-18T06:03:56.892Z,100024.19
2022-12-18T06:06:27.021Z,100027.84
2022-12-18T06:08:56.316Z,100034.34
2022-12-18T06:11:26.331Z,100039.50
2022-12-18T06:13:58.932Z,100038.75
2022-12-18T06:16:28.024Z,100045.19
2022-12-18T06:18:58.532Z,100050.81
2022-12-18T06:21:26.872Z,100043.63
2022-12-18T06:23:55.051Z,100051.56
2022-12-18T06:26:27.765Z,100048.00
2022-12-18T06:28:58.001Z,100046.94
2022-12-18T06:31:27.624Z,100054.69
2022-12-18T06:33:55.822Z,100053.03
2022-12-18T06:36:23.891Z,100052.28
2022-12-18T06:38:53.391Z,100060.03
2022-12-18T06:41:23.173Z,100074.16
2022-12-18T06:43:53.581Z,100070.28
2022-12-18T06:46:25.044Z,100071.38
2022-12-18T06:48:53.007Z,100079.41
2022-12-18T06:51:21.978Z,100078.28
2022-12-18T06:53:50.023Z,100082.69
2022-12-18T06:56:18.248Z,100094.06
2022-12-18T06:58:46.612Z,100094.69
2022-12-18T07:01:15.696Z,100103.53
2022-12-18T07:03:45.674Z,100098.72
2022-12-18T07:06:19.101Z,100103.09
2022-12-18T07:08:47.586Z,100109.47
2022-12-18T07:11:16.160Z,100121.63
2022-12-18T07:13:44.708Z,100111.69
2022-12-18T07:16:22.380Z,100118.00
2022-12-18T07:18:54.787Z,100124.78
2022-12-18T07:21:23.803Z,100127.97
2022-12-18T07:23:51.810Z,100132.22
2022-12-18T07:26:21.383Z,100131.78
2022-12-18T07:28:50.648Z,100131.69
2022-12-18T07:31:21.514Z,100136.19
2022-12-18T07:33:50.461Z,100140.88
2022-12-18T07:36:20.424Z,100141.06
2022-12-18T07:38:49.948Z,100162.50
2022-12-18T07:41:19.674Z,100155.03
2022-12-18T07:43:48.445Z,100159.72
2022-12-18T07:46:17.848Z,100164.06
2022-12-18T07:48:50.052Z,100166.63
2022-12-18T07:51:21.012Z,100168.31
2022-12-18T07:53:52.286Z,100166.09
2022-12-18T07:56:30.336Z,100173.94
2022-12-18T07:58:59.569Z,100172.66
2022-12-18T08:01:27.921Z,100181.63
2022-12-18T08:03:56.097Z,100177.78
2022-12-18T08:06:25.458Z,100176.34
2022-12-18T08:08:54.760Z,100164.38
2022-12-18T08:11:23.672Z,100172.84
2022-12-18T08:13:51.861Z,100182.25
2022-12-18T08:16:20.782Z,100184.25
2022-12-18T08:18:49.469Z,100193.09
2022-12-18T08:21:22.094Z,100193.38
2022-12-18T08:23:52.412Z,100193.53
2022-12-18T08:26:21.309Z,100197.25
2022-12-18T08:28:50.825Z,100198.75
2022-12-18T08:31:19.410Z,100205.75
2022-12-18T08:33:49.970Z,100209.56
2022-12-18T08:36:18.228Z,100204.50
2022-12-18T08:38:46.269Z,100200.84
2022-12-18T08:41:18.247Z,100197.63
2022-12-18T08:44:04.174Z,100199.13
2022-12-18T08:46:36.664Z,100203.03
2022-12-18T08:49:05.374Z,100203.72
2022-12-18T08:51:33.397Z,100207.84
2022-12-18T08:54:01.358Z,100214.13
2022-12-18T08:56:32.040Z,100216.66
2022-12-18T08:59:00.198Z,100217.03
2022-12-18T09:01:28.485Z,100221.13
2022-12-18T09:03:56.593Z,100224.78
2022-12-18T09:06:25.481Z,100224.41
2022-12-18T09:08:53.543Z,100231.69
2022-12-18T09:11:24.607Z,100232.56
2022-12-18T09:13:54.980Z,100236.88
2022-12-18T09:16:30.134Z,100227.66
2022-12-18T09:19:01.340Z,100230.63
2022-12-18T09:21:33.937Z,100242.00
2022-12-18T09:24:08.026Z,100226.00
2022-12-18T09:26:37.318Z,100229.41
2022-12-18T09:29:08.177Z,100236.44
2022-12-18T09:31:36.789Z,100234.19
2022-12-18T09:34:04.869Z,100236.03
2022-12-18T09:36:34.058Z,100227.94
2022-12-18T09:39:07.564Z,100235.25
2022-12-18T09:41:45.163Z,100236.09
2022-12-18T09:44:22.199Z,100231.16
2022-12-18T09:46:56.763Z,100244.84
2022-12-18T09:49:28.303Z,100233.50
2022-12-18T09:52:01.875Z,100246.78
2022-12-18T09:54:38.070Z,100240.66
2022-12-18T09:57:06.452Z,100239.88
2022-12-18T09:59:38.477Z,100230.97
2022-12-18T10:02:18.682Z,100237.53
2022-12-18T10:04:55.782Z,100234.41
2022-12-18T10:07:31.359Z,100239.53
2022-12-18T10:10:07.243Z,100240.31
2022-12-18T10:12:43.409Z,100240.56
2022-12-18T10:15:21.927Z,100240.84
2022-12-18T10:17:57.543Z,100244.28
2022-12-18T10:20:34.968Z,100233.41
2022-12-18T10:23:16.036Z,100256.84
2022-12-18T10:25:57.692Z,100239.97
2022-12-18T10:28:26.879Z,100251.31
2022-12-18T10:30:56.262Z,100244.88
2022-12-18T10:33:26.584Z,100236.13
2022-12-18T10:35:56.333Z,100231.16
2022-12-18T10:38:27.158Z,100230.06
2022-12-18T10:40:57.576Z,100225.75
2022-12-18T10:43:28.374Z,100217.22
2022-12-18T10:46:04.621Z,100223.75
2022-12-18T10:48:33.872Z,100228.94
2022-12-18T10:51:10.804Z,100224.03
2022-12-18T10:53:44.079Z,100214.69
2022-12-18T10:56:13.051Z,100226.34
2022-12-18T10:58:41.814Z,100216.56
2022-12-18T11:01:13.964Z,100212.38
2022-12-18T11:03:44.560Z,100216.53
2022-12-18T11:06:15.395Z,100229.94
2022-12-18T11:08:46.552Z,100212.25
2022-12-18T11:11:22.523Z,100212.44
2022-12-18T11:14:01.416Z,100204.00
2022-12-18T11:16:32.998Z,100209.09
2022-12-18T11:19:25.892Z,100194.19
2022-12-18T11:21:54.127Z,100190.00
2022-12-18T11:24:29.342Z,100194.84
2022-12-18T11:26:59.792Z,100197.31
2022-12-18T11:29:35.608Z,100195.69
2022-12-18T11:32:30.394Z,100193.72
2022-12-18T11:35:05.321Z,100202.69
2022-12-18T11:37:35.016Z,100202.16
2022-12-18T11:40:09.197Z,100194.97
2022-12-18T11:42:43.672Z,100198.56
2022-12-18T11:45:26.868Z,100202.41
2022-12-18T11:48:01.425Z,100204.34
2022-12-18T11:50:36.009Z,100205.53
2022-12-18T11:53:06.357Z,100211.31
2022-12-18T11:55:42.107Z,100219.81
2022-12-18T11:58:22.561Z,100213.22
2022-12-18T12:00:59.268Z,100214.28
2022-12-18T12:03:49.894Z,100206.94
2022-12-18T12:06:25.160Z,100210.66
2022-12-18T12:09:05.021Z,100205.19
2022-12-18T12:11:44.313Z,100204.09
2022-12-18T12:14:24.823Z,100200.38
2022-12-18T12:16:59.416Z,100203.91
2022-12-18T12:19:38.848Z,100197.59
2022-12-18T12:22:16.056Z,100207.34
2022-12-18T12:24:58.468Z,100210.19
2022-12-18T12:27:36.742Z,100211.25
2022-12-18T12:30:10.380Z,100214.81
2022-12-18T12:32:53.029Z,100220.13
2022-12-18T12:35:31.894Z,100215.22
2022-12-18T12:38:11.546Z,100226.38
2022-12-18T12:40:55.187Z,100229.28
2022-12-18T12:43:34.468Z,100232.09
2022-12-18T12:46:07.852Z,100238.78
2022-12-18T12:48:45.624Z,100241.41
2022-12-18T12:51:21.029Z,100238.63
2022-12-18T12:53:50.616Z,100246.88
2022-12-18T12:56:22.889Z,100249.03
2022-12-18T12:59:07.143Z,100255.34
2022-12-18T13:01:43.267Z,100248.31
2022-12-18T13:04:23.915Z,100255.06
2022-12-18T13:07:03.657Z,100259.38
2022-12-18T13:09:36.826Z,100256.16
2022-12-18T13:12:34.916Z,100264.03
2022-12-18T13:15:22.602Z,100260.41
2022-12-18T13:17:50.986Z,100258.56
2022-12-18T13:20:19.331Z,100268.16
2022-12-18T13:22:51.345Z,100264.53
2022-12-18T13:25:35.797Z,100268.41
2022-12-18T13:28:07.264Z,100271.03
2022-12-18T13:30:58.048Z,100272.59
2022-12-18T13:34:02.223Z,100283.84
2022-12-18T13:36:34.529Z,100287.91
2022-12-18T13:39:29.945Z,100279.56
2022-12-18T13:43:00.311Z,100288.78
2022-12-18T13:45:43.299Z,100298.75
2022-12-18T13:48:25.183Z,100294.31
2022-12-18T13:51:01.753Z,100300.25
2022-12-18T13:53:35.004Z,100312.28
2022-12-18T13:56:05.805Z,100307.19
2022-12-18T13:58:34.059Z,100311.13
2022-12-18T14:01:04.177Z,100306.47
2022-12-18T14:03:32.647Z,100308.50
2022-12-18T14:06:08.573Z,100312.44
2022-12-18T14:08:41.508Z,100322.66
2022-12-18T14:11:21.321Z,100321.78
2022-12-18T14:13:50.299Z,100324.56
2022-12-18T14:16:19.817Z,100318.28
2022-12-18T14:18:50.217Z,100333.41
2022-12-18T14:21:22.058Z,100328.81
2022-12-18T14:23:50.199Z,100330.81
2022-12-18T14:26:30.380Z,100326.56
2022-12-18T14:29:02.153Z,100330.53
2022-12-18T14:31:32.639Z,100334.25
2022-12-18T14:34:00.734Z,100330.78
2022-12-18T14:36:30.552Z,100330.78
2022-12-18T14:39:00.405Z,100335.06
2022-12-18T14:41:29.995Z,100333.44
2022-12-18T14:44:08.222Z,100341.66
2022-12-18T14:46:39.631Z,100345.06
2022-12-18T14:49:22.646Z,100342.75
2022-12-18T14:51:53.119Z,100346.88
2022-12-18T14:54:23.029Z,100343.38
2022-12-18T14:56:58.596Z,100356.16
2022-12-18T14:59:28.235Z,100340.53
2022-12-18T15:02:03.353Z,100341.81
2022-12-18T15:04:36.282Z,100341.88
2022-12-18T15:07:12.289Z,100341.91
2022-12-18T15:09:41.708Z,100335.63
2022-12-18T15:12:26.819Z,100348.59
2022-12-18T15:14:54.904Z,100348.09
2022-12-18T15:17:26.100Z,100346.50
2022-12-18T15:20:00.980Z,100348.16
2022-12-18T15:22:31.183Z,100354.97
2022-12-18T15:25:01.120Z,100357.06
2022-12-18T15:27:33.396Z,100350.72
2022-12-18T15:30:20.107Z,100361.16
2022-12-18T15:32:48.762Z,100365.22
2022-12-18T15:35:20.325Z,100372.38
2022-12-18T15:37:48.516Z,100371.81
2022-12-18T15:40:18.071Z,100373.13
2022-12-18T15:43:08.350Z,100373.31
2022-12-18T15:45:36.770Z,100377.34
2022-12-18T15:48:13.398Z,100383.13
2022-12-18T15:50:41.559Z,100392.50
2022-12-18T15:53:11.105Z,100383.75
2022-12-18T15:56:00.973Z,100385.69
2022-12-18T15:58:30.819Z,100392.50
2022-12-18T16:01:01.951Z,100391.06
2022-12-18T16:03:30.212Z,100392.22
2022-12-18T16:05:59.429Z,100394.94
2022-12-18T16:08:28.377Z,100393.69
2022-12-18T16:10:57.223Z,100394.50
2022-12-18T16:13:25.861Z,100399.41
2022-12-18T16:15:55.512Z,100411.59
2022-12-18T16:18:23.723Z,100408.72
2022-12-18T16:20:51.837Z,100405.75
2022-12-18T16:23:19.821Z,100401.31
2022-12-18T16:25:48.693Z,100400.06
2022-12-18T16:28:16.837Z,100411.75
2022-12-18T16:30:45.945Z,100412.84
2022-12-18T16:33:15.445Z,100414.59
2022-12-18T16:35:44.636Z,100421.09
2022-12-18T16:38:12.641Z,100419.66
2022-12-18T16:41:02.959Z,100422.00
2022-12-18T16:43:31.055Z,100428.34
2022-12-18T16:46:01.197Z,100431.78
2022-12-18T16:48:30.652Z,100441.44
2022-12-18T16:51:03.744Z,100433.84
2022-12-18T16:53:32.272Z,100438.06
2022-12-18T16:56:01.536Z,100436.97
2022-12-18T16:58:29.689Z,100435.03
2022-12-18T17:00:57.764Z,100430.28
2022-12-18T17:03:25.955Z,100433.72
2022-12-18T17:05:56.167Z,100432.59
2022-12-18T17:08:24.343Z,100432.00
2022-12-18T17:10:52.334Z,100430.91
2022-12-18T17:13:25.569Z,100441.78
2022-12-18T17:15:54.219Z,100434.97
2022-12-18T17:18:23.236Z,100437.69
2022-12-18T17:20:51.378Z,100426.16
2022-12-18T17:23:20.956Z,100428.84
2022-12-18T17:25:49.081Z,100419.31
2022-12-18T17:28:17.352Z,100425.03
2022-12-18T17:30:45.791Z,100428.22
2022-12-18T17:33:14.157Z,100423.44
2022-12-18T17:35:44.015Z,100408.75
2022-12-18T17:38:13.039Z,100410.78
2022-12-18T17:40:46.222Z,100404.00
2022-12-18T17:43:14.969Z,100401.19
2022-12-18T17:45:43.822Z,100404.94
2022-12-18T17:48:12.483Z,100403.41
2022-12-18T17:50:41.320Z,100398.81
2022-12-18T17:53:09.645Z,100392.53
2022-12-18T17:55:37.831Z,100392.13
2022-12-18T17:58:07.421Z,100388.19
2022-12-18T18:00:35.452Z,100390.69
2022-12-18T18:03:03.753Z,100397.16
2022-12-18T18:05:31.893Z,100387.78
2022-12-18T18:08:02.952Z,100395.88
2022-12-18T18:10:30.932Z,100395.53
2022-12-18T18:13:17.697Z,100397.34
2022-12-18T18:15:55.992Z,100389.78
2022-12-18T18:18:24.216Z,100397.84
2022-12-18T18:20:53.969Z,100400.25
2022-12-18T18:23:22.266Z,100398.19
2022-12-18T18:25:50.242Z,100400.72
2022-12-18T18:28:19.477Z,100411.13
2022-12-18T18:30:48.781Z,100419.38
2022-12-18T18:33:18.249Z,100421.59
2022-12-18T18:35:54.438Z,100429.84
2022-12-18T18:38:23.186Z,100432.03
2022-12-18T18:40:59.328Z,100428.59
2022-12-18T18:43:27.352Z,100422.44
2022-12-18T18:45:58.820Z,100409.81
2022-12-18T18:48:27.464Z,100419.91
2022-12-18T18:50:58.443Z,100421.63
2022-12-18T18:53:26.859Z,100425.44
2022-12-18T18:56:17.482Z,100430.47
2022-12-18T18:58:42.966Z,100420.56
2022-12-18T19:01:15.177Z,100420.81
2022-12-18T19:03:44.853Z,100418.00
2022-12-18T19:06:15.550Z,100422.13
2022-12-18T19:08:44.368Z,100419.44
2022-12-18T19:11:30.617Z,100415.63
2022-12-18T19:14:06.018Z,100416.88
2022-12-18T19:16:37.010Z,100411.94
2022-12-18T19:19:05.744Z,100411.97
2022-12-18T19:21:34.875Z,100416.88
2022-12-18T19:24:03.517Z,100423.16
2022-12-18T19:26:31.547Z,100430.25
2022-12-18T19:29:03.338Z,100427.25
2022-12-18T19:31:35.462Z,100437.78
2022-12-18T19:34:07.806Z,100428.50
2022-12-18T19:36:38.952Z,100430.28
2022-12-18T19:39:10.695Z,100428.53
2022-12-18T19:41:38.939Z,100443.75
2022-12-18T19:44:08.677Z,100440.84
2022-12-18T19:46:40.330Z,100438.81
2022-12-18T19:49:18.036Z,100446.06
2022-12-18T19:51:46.697Z,100451.44
2022-12-18T19:54:16.987Z,100456.31
2022-12-18T19:56:45.866Z,100454.78
2022-12-18T19:59:14.113Z,100463.25
2022-12-18T20:01:42.263Z,100456.44
2022-12-18T20:04:10.465Z,100452.88
2022-12-18T20:06:48.728Z,100459.81
2022-12-18T20:09:17.580Z,100461.56
2022-12-18T20:11:46.151Z,100444.16
2022-12-18T20:14:22.734Z,100450.63
2022-12-18T20:16:52.406Z,100450.03
2022-12-18T20:19:21.664Z,100441.63
2022-12-18T20:21:51.236Z,100452.84
2022-12-18T20:24:19.275Z,100458.69
2022-12-18T20:26:47.289Z,100462.03
2022-12-18T20:29:15.320Z,100471.34
2022-12-18T20:31:43.369Z,100474.22
2022-12-18T20:34:11.569Z,100466.94
2022-12-18T20:36:39.894Z,100462.50
2022-12-18T20:39:13.323Z,100466.47
2022-12-18T20:41:41.684Z,100465.03
2022-12-18T20:44:23.020Z,100464.25
2022-12-18T20:46:53.415Z,100455.88
2022-12-18T20:49:21.532Z,100453.03
2022-12-18T20:51:52.402Z,100448.88
2022-12-18T20:54:22.113Z,100451.09
2022-12-18T20:56:50.202Z,100452.22
2022-12-18T20:59:19.858Z,100444.28
2022-12-18T21:01:48.400Z,100440.69
2022-12-18T21:04:18.533Z,100437.00
2022-12-18T21:06:51.433Z,100431.59
2022-12-18T21:09:22.731Z,100421.06
2022-12-18T21:12:08.814Z,100425.47
2022-12-18T21:14:40.027Z,100422.47
2022-12-18T21:17:08.129Z,100417.28
2022-12-18T21:19:36.208Z,100421.09
2022-12-18T21:22:04.483Z,100426.91
2022-12-18T21:24:34.037Z,100423.59
2022-12-18T21:27:02.125Z,100425.81
2022-12-18T21:29:30.306Z,100425.03
2022-12-18T21:31:58.345Z,100416.00
2022-12-18T21:34:28.804Z,100405.44
2022-12-18T21:36:59.201Z,100404.13
2022-12-18T21:39:28.811Z,100400.19
2022-12-18T21:42:16.609Z,100402.09
2022-12-18T21:44:45.626Z,100394.34
2022-12-18T21:47:22.909Z,100392.91
2022-12-18T21:49:52.855Z,100388.19
2022-12-18T21:52:27.260Z,100385.16
2022-12-18T21:55:03.268Z,100390.72
2022-12-18T21:57:38.013Z,100398.13
2022-12-18T22:00:07.596Z,100402.06
2022-12-18T22:02:41.857Z,100398.47
2022-12-18T22:05:10.667Z,100393.88
2022-12-18T22:07:39.211Z,100390.72
2022-12-18T22:10:08.168Z,100391.66
2022-12-18T22:12:43.105Z,100389.31
2022-12-18T22:15:18.634Z,100397.84
2022-12-18T22:17:50.428Z,100400.19
2022-12-18T22:20:20.082Z,100406.03
2022-12-18T22:22:48.637Z,100400.50
2022-12-18T22:25:16.695Z,100402.88
2022-12-18T22:28:07.058Z,100402.56
2022-12-18T22:30:34.076Z,100386.94
2022-12-18T22:33:02.788Z,100393.25
2022-12-18T22:35:30.812Z,100391.66
2022-12-18T22:37:59.724Z,100388.84
2022-12-18T22:40:28.601Z,100386.63
2022-12-18T22:42:58.208Z,100376.31
2022-12-18T22:45:26.796Z,100378.69
2022-12-18T22:47:54.985Z,100376.16
2022-12-18T22:50:23.096Z,100377.44
2022-12-18T22:52:51.102Z,100376.47
2022-12-18T22:55:19.110Z,100376.66
2022-12-18T22:57:49.033Z,100371.28
2022-12-18T23:00:23.790Z,100369.03
2022-12-18T23:02:59.185Z,100373.63
2022-12-18T23:05:27.668Z,100375.97
2022-12-18T23:07:55.967Z,100374.06
2022-12-18T23:10:24.092Z,100375.16
2022-12-18T23:12:52.151Z,100376.44
2022-12-18T23:15:27.207Z,100372.00
2022-12-18T23:17:57.400Z,100369.63
2022-12-18T23:20:25.441Z,100370.28
2022-12-18T23:22:53.465Z,100374.34
2022-12-18T23:25:21.654Z,100370.06
2022-12-18T23:27:49.684Z,100372.16
2022-12-18T23:30:17.857Z,100369.06
2022-12-18T23:32:47.266Z,100370.38
2022-12-18T23:35:15.805Z,100370.56
2022-12-18T23:37:58.801Z,100372.75
2022-12-18T23:40:28.033Z,100373.78
2022-12-18T23:42:56.057Z,100379.16
2022-12-18T23:45:24.132Z,100372.09
2022-12-18T23:47:53.497Z,100382.22
2022-12-18T23:50:24.528Z,100376.47
2022-12-18T23:52:57.238Z,100370.31
2022-12-18T23:55:33.478Z,100365.88
2022-12-18T23:58:01.545Z,100372.13
